Time;durP1;ratioP1;P1;durP2;ratioP2;P2;SDS_P1;SDS_P2;PMS_P1;PMS_P2;Temp;Humidity;BMP_temperature;BMP_pressure;BME280_temperature;BME280_humidity;BME280_pressure;Samples;Min_cycle;Max_cycle;Signal;HPM_P1;HPM_P2
2022/01/23 00:00:35;;;;;;;339.80;32.67;;;;;;;3.17;81.48;101576.09;4948844;29;20027;-73
2022/01/23 00:03:02;;;;;;;156.93;24.38;;;;;;;3.18;81.43;101568.47;4965285;29;20027;-73
2022/01/23 00:05:35;;;;;;;274.55;35.65;;;;;;;3.13;81.71;101580.22;4965038;29;20071;-73
2022/01/23 00:08:01;;;;;;;134.90;22.42;;;;;;;3.15;81.70;101567.47;4964848;29;20106;-73
2022/01/23 00:10:27;;;;;;;236.32;28.60;;;;;;;3.16;81.56;101556.41;4964588;29;20038;-73
2022/01/23 00:13:05;;;;;;;269.30;29.77;;;;;;;3.18;81.50;101557.34;4964969;29;20035;-74
2022/01/23 00:18:15;;;;;;;414.83;40.72;;;;;;;3.12;81.66;101549.38;4964847;29;20042;-73
2022/01/23 00:20:40;;;;;;;305.48;31.63;;;;;;;3.09;81.71;101547.56;5009344;28;20033;-74
2022/01/23 00:23:14;;;;;;;331.98;33.30;;;;;;;3.04;81.60;101538.78;5065662;28;20385;-73
2022/01/23 00:31:29;;;;;;;489.98;39.92;;;;;;;2.90;81.43;101540.81;4983787;28;20102;-72
2022/01/23 00:33:55;;;;;;;477.60;49.05;;;;;;;2.92;81.55;101545.19;4984017;28;20522;-73
2022/01/23 00:36:24;;;;;;;375.23;35.88;;;;;;;2.99;81.72;101564.25;4983402;28;20141;-73
2022/01/23 00:38:49;;;;;;;296.70;32.10;;;;;;;2.92;82.10;101562.28;4983740;28;20090;-73
2022/01/23 00:41:15;;;;;;;324.67;30.17;;;;;;;2.90;81.85;101572.47;4983710;28;20030;-72
2022/01/23 00:43:43;;;;;;;272.40;31.23;;;;;;;2.96;81.80;101587.22;4983605;28;20034;-72
2022/01/23 00:51:23;;;;;;;218.73;24.80;;;;;;;2.92;81.64;101577.66;4983541;28;20027;-73
2022/01/23 00:53:48;;;;;;;203.98;25.30;;;;;;;2.89;81.62;101580.94;4967413;28;20026;-72
2022/01/23 00:56:13;;;;;;;237.45;23.23;;;;;;;2.88;81.61;101576.66;4983167;28;20046;-73
2022/01/23 00:58:39;;;;;;;138.27;18.95;;;;;;;2.89;81.72;101575.81;4967361;28;20030;-73
2022/01/23 01:01:04;;;;;;;237.07;22.38;;;;;;;2.90;81.59;101576.72;4985168;28;20106;-73
2022/01/23 01:03:30;;;;;;;310.58;29.83;;;;;;;2.66;81.68;101536.38;5043593;28;20112;-73
2022/01/23 01:05:55;;;;;;;304.38;29.13;;;;;;;2.74;81.88;101576.06;5043588;28;20096;-72
2022/01/23 01:08:20;;;;;;;366.30;31.88;;;;;;;2.50;82.06;101551.13;5044944;28;20389;-73
2022/01/23 01:11:00;;;;;;;324.25;28.77;;;;;;;2.64;82.03;101564.53;5043136;28;20025;-72
2022/01/23 01:13:31;;;;;;;259.58;25.17;;;;;;;2.60;82.15;101567.78;5044536;28;20021;-72
2022/01/23 01:37:46;;;;;;;262.23;22.10;;;;;;;2.20;82.67;101588.28;4982695;28;20027;-71
2022/01/23 01:40:12;;;;;;;206.90;19.52;;;;;;;2.15;82.78;101594.88;4982113;28;20057;-71
2022/01/23 01:42:37;;;;;;;198.18;19.17;;;;;;;2.16;82.79;101598.28;4982612;28;20470;-72
2022/01/23 01:45:03;;;;;;;332.70;25.85;;;;;;;2.05;83.05;101579.88;4982216;28;20022;-71
2022/01/23 01:47:29;;;;;;;247.00;23.40;;;;;;;2.10;83.07;101591.22;4982396;28;20042;-71
2022/01/23 01:49:54;;;;;;;302.88;24.40;;;;;;;2.13;83.42;101611.84;4982421;28;20049;-73
2022/01/23 01:52:19;;;;;;;264.77;22.92;;;;;;;2.17;83.33;101606.06;4996606;28;20034;-71
2022/01/23 01:54:47;;;;;;;184.85;18.08;;;;;;;2.19;83.40;101608.72;5043903;28;20103;-71
2022/01/23 01:57:14;;;;;;;410.25;32.03;;;;;;;2.09;83.56;101592.91;5043910;28;20022;-72
2022/01/23 02:10:25;;;;;;;225.93;21.73;;;;;;;2.37;83.55;101630.84;5043114;28;20534;-71
2022/01/23 02:16:43;;;;;;;327.58;28.15;;;;;;;2.40;83.61;101613.91;5043703;28;20026;-71
2022/01/23 02:51:06;;;;;;;176.07;15.02;;;;;;;2.34;83.62;101629.03;5042949;28;20086;-71
2022/01/23 02:54:06;;;;;;;114.28;10.90;;;;;;;2.23;83.77;101628.53;5043102;28;20040;-71
2022/01/23 02:56:34;;;;;;;218.75;19.13;;;;;;;2.19;84.08;101630.06;5042875;28;20034;-71
2022/01/23 02:59:10;;;;;;;171.57;17.48;;;;;;;2.16;84.17;101617.13;5045839;28;20499;-71
2022/01/23 03:01:44;;;;;;;276.83;20.55;;;;;;;2.11;84.07;101605.78;5045595;28;20041;-72
2022/01/23 03:04:10;;;;;;;193.90;15.77;;;;;;;2.16;83.97;101612.00;5046960;28;20017;-72
2022/01/23 03:09:52;;;;;;;77.65;8.98;;;;;;;2.04;83.85;101617.44;5046918;28;20049;-70
2022/01/23 03:29:52;;;;;;;141.80;15.45;;;;;;;1.70;85.69;101619.28;5046542;28;20134;-70
2022/01/23 03:32:23;;;;;;;304.55;27.38;;;;;;;1.80;85.69;101622.28;5046426;28;20013;-70
2022/01/23 03:34:48;;;;;;;261.83;23.33;;;;;;;1.81;85.90;101618.91;5047556;28;20025;-70
2022/01/23 03:37:14;;;;;;;291.48;24.95;;;;;;;1.90;85.66;101621.91;5066209;28;20080;-71
2022/01/23 03:39:39;;;;;;;242.50;23.05;;;;;;;1.91;85.87;101618.56;5066351;28;20508;-71
2022/01/23 03:42:05;;;;;;;251.30;22.65;;;;;;;1.91;85.57;101604.88;5066159;28;20041;-71
2022/01/23 03:44:32;;;;;;;277.00;27.73;;;;;;;2.06;85.59;101607.28;5066137;28;20086;-71
2022/01/23 03:47:20;;;;;;;280.75;27.73;;;;;;;2.08;85.42;101603.06;5065930;28;20025;-71
2022/01/23 03:49:48;;;;;;;199.30;20.48;;;;;;;2.14;85.34;101608.47;5047968;28;20025;-71
2022/01/23 03:52:15;;;;;;;403.05;32.83;;;;;;;2.10;85.37;101601.47;5065888;28;20028;-71
2022/01/23 03:54:41;;;;;;;389.35;36.50;;;;;;;2.17;85.42;101615.44;5065995;28;20021;-71
2022/01/23 03:57:07;;;;;;;166.60;18.13;;;;;;;2.20;85.50;101624.16;5065714;28;20024;-71
2022/01/23 03:59:33;;;;;;;320.75;28.75;;;;;;;2.20;85.33;101616.47;5066035;28;20025;-71
2022/01/23 04:01:59;;;;;;;397.20;32.92;;;;;;;2.35;85.28;101630.75;5065817;28;20017;-71
2022/01/23 04:04:38;;;;;;;418.65;44.50;;;;;;;2.39;85.25;101619.88;5065680;28;20036;-71
2022/01/23 04:07:10;;;;;;;198.75;20.17;;;;;;;2.36;85.17;101617.16;5065910;28;20045;-71
2022/01/23 04:09:37;;;;;;;384.52;34.00;;;;;;;2.40;85.10;101621.59;5065539;28;20028;-72
2022/01/23 04:12:04;;;;;;;550.63;52.08;;;;;;;2.32;84.99;101613.56;5065333;28;20021;-71
2022/01/23 04:14:31;;;;;;;198.95;21.88;;;;;;;2.33;85.42;101611.91;5065651;28;20025;-70
2022/01/23 04:19:58;;;;;;;338.73;30.05;;;;;;;2.39;85.64;101614.75;5033892;28;20071;-71
2022/01/23 05:00:33;;;;;;;266.77;20.40;;;;;;;2.65;87.51;101609.00;4983105;28;20041;-70
2022/01/23 05:05:42;;;;;;;261.35;22.38;;;;;;;2.83;87.70;101632.88;4983220;28;20057;-69
2022/01/23 05:08:16;;;;;;;365.25;33.65;;;;;;;2.60;87.56;101588.31;4982942;28;20034;-70
2022/01/23 05:10:41;;;;;;;110.25;13.50;;;;;;;2.89;87.56;101634.81;4983049;28;20573;-70
2022/01/23 05:13:07;;;;;;;290.42;27.83;;;;;;;2.96;87.05;101641.09;4983161;28;20038;-70
2022/01/23 05:15:34;;;;;;;259.60;28.75;;;;;;;2.95;87.02;101639.34;5018535;28;20044;-70
2022/01/23 05:17:59;;;;;;;257.90;21.75;;;;;;;2.95;87.18;101647.06;5064330;28;20036;-69
2022/01/23 05:20:27;;;;;;;227.70;23.35;;;;;;;2.96;87.01;101653.94;5063415;28;20025;-70
2022/01/23 05:22:58;;;;;;;207.00;22.42;;;;;;;2.99;86.79;101653.22;5064430;28;20135;-70
2022/01/23 05:25:27;;;;;;;198.73;19.95;;;;;;;3.00;86.86;101644.69;5063851;28;20058;-69
2022/01/23 05:27:54;;;;;;;231.25;19.23;;;;;;;2.99;86.96;101643.81;5064267;28;20103;-69
2022/01/23 05:30:20;;;;;;;287.17;25.80;;;;;;;2.90;87.00;101644.28;5064137;28;20023;-69
2022/01/23 05:32:46;;;;;;;258.60;21.85;;;;;;;2.98;87.23;101654.88;5063954;28;20039;-69
2022/01/23 05:35:13;;;;;;;296.50;26.45;;;;;;;3.02;87.03;101658.47;5063972;28;20044;-70
2022/01/23 05:37:40;;;;;;;241.60;21.60;;;;;;;3.01;87.42;101657.59;5063955;28;20024;-69
2022/01/23 05:40:07;;;;;;;269.95;28.80;;;;;;;2.99;87.21;101648.06;5063991;28;20292;-69
2022/01/23 05:42:33;;;;;;;386.67;33.40;;;;;;;3.09;87.46;101660.47;5063992;28;20017;-69
2022/01/23 05:44:58;;;;;;;262.25;24.35;;;;;;;3.12;87.21;101654.59;5045774;28;20564;-69
2022/01/23 05:47:23;;;;;;;157.15;13.15;;;;;;;3.08;87.27;101663.88;5063927;28;20098;-69
2022/01/23 05:49:49;;;;;;;284.60;25.10;;;;;;;3.08;87.44;101666.44;5045937;28;20024;-69
2022/01/23 05:52:15;;;;;;;161.40;16.40;;;;;;;3.06;87.74;101661.22;5063603;28;20024;-69
2022/01/23 05:54:40;;;;;;;142.95;14.35;;;;;;;3.05;87.68;101658.59;5063535;28;20017;-69
2022/01/23 05:57:06;;;;;;;304.77;30.35;;;;;;;3.10;87.91;101665.66;5063629;28;20039;-69
2022/01/23 05:59:31;;;;;;;151.38;14.63;;;;;;;3.02;88.02;101654.19;5063459;28;20108;-69
2022/01/23 06:01:57;;;;;;;250.93;22.38;;;;;;;3.04;88.13;101660.28;5045496;28;20525;-68
2022/01/23 06:04:27;;;;;;;172.10;17.85;;;;;;;3.12;88.26;101673.44;5063402;28;20028;-68
2022/01/23 06:06:56;;;;;;;195.35;16.92;;;;;;;3.14;88.30;101666.69;5063572;28;20078;-69
2022/01/23 06:09:22;;;;;;;231.55;19.85;;;;;;;3.12;88.29;101660.59;5045572;28;20083;-69
2022/01/23 06:11:49;;;;;;;182.05;17.70;;;;;;;3.18;88.43;101670.28;5045397;28;20349;-69
2022/01/23 06:14:14;;;;;;;146.90;16.02;;;;;;;3.20;88.47;101682.34;5045656;28;20096;-69
2022/01/23 06:16:39;;;;;;;193.93;22.58;;;;;;;3.14;88.44;101664.13;5063535;28;20031;-69
2022/01/23 06:19:05;;;;;;;209.40;19.38;;;;;;;3.24;88.48;101685.03;5063655;28;20039;-69
2022/01/23 06:21:32;;;;;;;141.23;16.95;;;;;;;3.24;88.61;101682.47;5064186;28;20025;-70
2022/01/23 06:24:45;;;;;;;172.52;15.55;;;;;;;3.27;88.50;101672.34;5063463;28;20078;-70
2022/01/23 06:26:49;;;;;;;229.27;21.00;;;;;;;3.30;88.58;101682.72;5057500;28;20037;-70
2022/01/23 06:29:16;;;;;;;211.15;18.75;;;;;;;3.29;88.76;101688.69;5045251;28;20028;-70
2022/01/23 06:31:43;;;;;;;126.10;12.80;;;;;;;3.31;88.84;101687.94;5063046;28;20028;-70
2022/01/23 06:34:10;;;;;;;141.13;14.80;;;;;;;3.30;89.03;101685.28;5063302;28;20024;-70
2022/01/23 06:36:36;;;;;;;206.10;17.30;;;;;;;3.31;89.17;101698.19;5063329;28;20045;-70
2022/01/23 06:39:04;;;;;;;162.68;15.98;;;;;;;3.39;89.02;101695.94;5045138;28;20032;-70
2022/01/23 06:41:30;;;;;;;143.30;15.57;;;;;;;3.41;89.16;101706.28;5063057;28;20024;-70
2022/01/23 06:43:55;;;;;;;147.50;15.50;;;;;;;3.44;89.29;101707.28;5063229;28;20025;-69
2022/01/23 06:46:20;;;;;;;121.07;12.20;;;;;;;3.38;89.27;101694.22;5045352;28;20041;-69
2022/01/23 06:48:46;;;;;;;81.32;8.30;;;;;;;3.40;89.33;101695.16;5045163;28;20104;-69
2022/01/23 06:51:11;;;;;;;183.90;19.75;;;;;;;3.47;89.30;101693.69;5062880;28;20025;-70
2022/01/23 06:53:37;;;;;;;89.85;8.93;;;;;;;3.55;89.54;101712.00;5062881;28;20035;-70
2022/01/23 06:56:02;;;;;;;177.95;16.50;;;;;;;3.59;89.45;101709.63;5063041;28;20033;-70
2022/01/23 06:58:28;;;;;;;58.22;8.60;;;;;;;3.61;89.31;101707.09;5062978;28;20059;-69
2022/01/23 07:00:56;;;;;;;60.35;8.13;;;;;;;3.70;89.35;101720.34;5045205;28;20021;-69
2022/01/23 07:03:21;;;;;;;178.70;14.75;;;;;;;3.64;89.55;101704.69;5063082;28;20020;-69
2022/01/23 07:05:47;;;;;;;114.65;11.85;;;;;;;3.73;89.58;101719.59;5045159;28;20178;-69
2022/01/23 07:08:12;;;;;;;196.00;19.05;;;;;;;3.78;89.51;101722.34;5062916;28;20025;-69
2022/01/23 07:10:37;;;;;;;167.65;15.93;;;;;;;3.77;89.57;101712.91;5062722;28;20132;-69
2022/01/23 07:13:03;;;;;;;124.88;10.52;;;;;;;3.72;89.74;101716.13;5062733;28;20021;-69
2022/01/23 07:15:28;;;;;;;67.32;8.80;;;;;;;3.78;89.65;101727.50;5044987;28;20036;-70
2022/01/23 07:17:57;;;;;;;173.85;13.25;;;;;;;3.87;89.49;101739.81;5063261;28;20329;-70
2022/01/23 07:20:22;;;;;;;100.07;8.38;;;;;;;3.79;89.65;101721.53;5062809;28;20020;-69
2022/01/23 07:22:48;;;;;;;118.70;8.65;;;;;;;3.88;89.69;101741.59;5062800;28;20032;-70
2022/01/23 07:25:13;;;;;;;193.65;14.20;;;;;;;3.87;89.97;101733.00;5044798;28;20025;-71
2022/01/23 07:27:48;;;;;;;67.55;5.95;;;;;;;3.91;89.91;101732.31;5062473;28;20039;-70
2022/01/23 07:30:28;;;;;;;102.38;10.32;;;;;;;3.96;90.00;101728.22;5062615;28;20033;-70
2022/01/23 07:32:56;;;;;;;96.57;10.68;;;;;;;3.84;90.10;101714.88;5061351;28;20025;-69
2022/01/23 07:35:25;;;;;;;178.00;14.85;;;;;;;4.00;90.14;101743.78;5062465;28;20045;-70
2022/01/23 07:37:50;;;;;;;103.70;9.65;;;;;;;4.03;90.12;101742.22;5062697;28;20139;-68
2022/01/23 07:40:16;;;;;;;157.23;10.98;;;;;;;4.02;90.47;101737.00;5062414;28;20509;-68
2022/01/23 07:42:41;;;;;;;163.10;18.58;;;;;;;4.07;90.39;101743.22;5044746;28;20024;-69
2022/01/23 07:45:07;;;;;;;189.18;15.50;;;;;;;4.07;90.20;101725.22;5048244;28;20021;-71
2022/01/23 07:47:33;;;;;;;250.43;19.45;;;;;;;4.16;90.00;101732.41;5048300;28;20021;-71
2022/01/23 07:50:00;;;;;;;265.13;23.45;;;;;;;4.09;90.29;101731.28;5066235;28;20102;-70
2022/01/23 07:52:29;;;;;;;245.15;16.63;;;;;;;4.22;90.08;101742.94;5047728;28;20048;-72
2022/01/23 07:54:55;;;;;;;259.40;23.33;;;;;;;4.26;90.04;101743.94;5065877;28;20473;-69
2022/01/23 07:57:20;;;;;;;226.68;20.90;;;;;;;4.18;90.37;101739.38;5065790;28;20017;-69
2022/01/23 07:59:46;;;;;;;184.27;17.23;;;;;;;4.17;90.03;101729.91;5066188;28;20039;-70
2022/01/23 08:02:11;;;;;;;138.05;12.68;;;;;;;4.27;90.05;101745.69;5065621;28;20504;-70
2022/01/23 08:04:36;;;;;;;190.98;18.05;;;;;;;4.38;90.03;101762.41;5047883;28;20012;-69
2022/01/23 08:07:10;;;;;;;151.50;12.50;;;;;;;4.38;89.87;101769.28;5047896;28;20167;-69
2022/01/23 08:09:36;;;;;;;273.77;21.60;;;;;;;4.44;90.04;101764.38;5066030;28;20028;-70
2022/01/23 08:12:02;;;;;;;199.45;17.58;;;;;;;4.47;90.01;101769.63;5065053;28;20029;-69
2022/01/23 08:14:27;;;;;;;260.88;22.02;;;;;;;4.49;90.05;101764.53;5065285;28;20080;-69
2022/01/23 08:16:52;;;;;;;168.25;16.15;;;;;;;4.49;89.90;101777.41;5065168;28;20017;-70
2022/01/23 08:19:18;;;;;;;221.10;17.67;;;;;;;4.52;90.04;101777.53;5065391;28;20477;-69
2022/01/23 08:21:43;;;;;;;294.58;27.77;;;;;;;4.45;90.20;101761.84;5065233;28;20423;-70
2022/01/23 08:24:09;;;;;;;228.35;18.20;;;;;;;4.55;90.11;101782.78;5065404;28;20017;-71
2022/01/23 08:26:37;;;;;;;261.95;22.92;;;;;;;4.52;90.47;101780.09;5065215;28;20025;-70
2022/01/23 08:29:03;;;;;;;211.20;17.35;;;;;;;4.56;90.33;101780.28;5065325;28;20013;-70
2022/01/23 08:31:29;;;;;;;233.13;22.42;;;;;;;4.64;90.35;101775.41;5064926;28;20021;-70
2022/01/23 08:33:54;;;;;;;223.80;19.35;;;;;;;4.64;90.41;101780.56;5065104;28;20049;-70
2022/01/23 08:36:19;;;;;;;131.25;14.40;;;;;;;4.68;90.28;101771.28;5064994;28;20048;-70
2022/01/23 08:38:45;;;;;;;239.45;19.73;;;;;;;4.65;90.40;101774.59;5065043;28;20040;-69
2022/01/23 08:43:39;;;;;;;187.25;17.98;;;;;;;4.75;90.44;101780.97;5065068;28;20033;-72
2022/01/23 08:46:05;;;;;;;170.52;14.50;;;;;;;4.78;90.50;101780.19;5065221;28;20087;-71
2022/01/23 08:48:33;;;;;;;292.65;28.25;;;;;;;4.80;90.58;101778.56;5064874;28;20068;-69
2022/01/23 08:50:58;;;;;;;209.63;19.75;;;;;;;4.83;90.48;101774.41;5064668;28;20623;-68
2022/01/23 08:53:25;;;;;;;208.07;19.83;;;;;;;4.87;90.54;101759.97;5064347;28;20024;-68
2022/01/23 08:55:50;;;;;;;195.10;23.40;;;;;;;4.92;90.27;101775.59;5045313;28;20538;-69
2022/01/23 08:58:16;;;;;;;251.32;22.58;;;;;;;4.90;90.88;101765.25;5064452;28;20033;-69
2022/01/23 09:00:42;;;;;;;154.52;21.90;;;;;;;4.92;90.49;101758.44;5064264;28;20481;-69
2022/01/23 09:03:08;;;;;;;159.30;17.42;;;;;;;4.92;90.58;101757.56;5064590;28;20036;-71
2022/01/23 09:05:34;;;;;;;364.35;32.65;;;;;;;4.95;90.55;101752.53;5064368;28;20028;-68
2022/01/23 09:08:00;;;;;;;167.43;17.48;;;;;;;5.03;90.50;101756.25;5064355;28;20020;-68
2022/01/23 09:10:27;;;;;;;194.27;20.88;;;;;;;4.98;90.68;101751.75;5064518;28;20048;-69
2022/01/23 09:13:28;;;;;;;118.97;11.18;;;;;;;5.06;90.52;101771.78;5064265;28;20032;-69
2022/01/23 09:15:53;;;;;;;50.95;7.78;;;;;;;5.07;90.27;101783.88;5064133;28;20035;-68
2022/01/23 09:18:19;;;;;;;109.70;10.23;;;;;;;4.94;90.36;101766.22;5045975;28;20021;-68
2022/01/23 09:20:44;;;;;;;105.40;10.40;;;;;;;4.99;90.40;101766.38;5064098;28;20020;-71
2022/01/23 09:23:10;;;;;;;48.85;6.25;;;;;;;5.01;90.43;101769.88;5063749;28;20115;-69
2022/01/23 09:25:35;;;;;;;53.83;6.15;;;;;;;5.02;90.55;101774.22;5063590;28;20028;-68
2022/01/23 09:28:05;;;;;;;76.07;7.07;;;;;;;5.01;90.60;101768.22;5064027;28;20025;-68
2022/01/23 09:30:35;;;;;;;162.75;16.48;;;;;;;5.07;90.34;101762.38;5045772;28;20021;-69
2022/01/23 09:33:02;;;;;;;205.23;17.80;;;;;;;5.02;90.81;101756.19;5063804;28;20112;-69
2022/01/23 09:35:27;;;;;;;139.02;13.35;;;;;;;5.04;90.74;101754.56;5045537;28;20049;-69
2022/01/23 09:37:53;;;;;;;79.72;8.32;;;;;;;5.10;90.57;101756.50;5063569;28;20028;-65
2022/01/23 09:40:18;;;;;;;38.83;6.25;;;;;;;5.12;90.67;101760.88;5063520;28;20021;-68
2022/01/23 09:42:49;;;;;;;176.13;14.00;;;;;;;5.12;90.65;101771.16;5062446;28;20059;-70
2022/01/23 09:45:15;;;;;;;188.93;16.50;;;;;;;5.06;90.38;101765.78;5045014;28;20031;-70
2022/01/23 09:47:41;;;;;;;117.07;8.95;;;;;;;5.01;90.47;101764.75;5044938;28;20024;-70
2022/01/23 09:50:10;;;;;;;188.95;15.10;;;;;;;4.98;90.69;101769.78;5062526;28;20021;-69
2022/01/23 09:52:37;;;;;;;95.75;11.27;;;;;;;5.02;90.89;101767.38;5063055;28;20036;-70
2022/01/23 09:55:10;;;;;;;147.80;15.15;;;;;;;5.06;90.99;101773.53;5044621;28;20033;-69
2022/01/23 09:57:37;;;;;;;121.28;12.35;;;;;;;4.89;91.02;101742.88;5044705;28;20092;-69
2022/01/23 10:00:07;;;;;;;75.95;7.30;;;;;;;5.02;90.79;101757.06;5062983;28;20073;-69
2022/01/23 10:02:33;;;;;;;35.63;3.83;;;;;;;5.01;90.69;101765.63;5062924;28;20013;-69
2022/01/23 10:04:58;;;;;;;30.40;4.00;;;;;;;4.99;90.74;101776.66;5062811;28;20021;-70
2022/01/23 10:07:24;;;;;;;83.50;7.07;;;;;;;4.98;90.94;101769.78;5062402;28;20021;-69
2022/01/23 10:09:57;;;;;;;55.65;5.57;;;;;;;4.94;91.03;101756.81;5062872;28;20043;-69
2022/01/23 10:12:26;;;;;;;123.53;10.10;;;;;;;4.94;91.19;101768.78;5062438;28;20032;-70
2022/01/23 10:14:56;;;;;;;53.70;4.55;;;;;;;4.82;90.90;101751.22;5062710;28;20024;-70
2022/01/23 10:17:21;;;;;;;69.90;6.03;;;;;;;4.86;90.88;101770.22;5062707;28;20036;-70
2022/01/23 10:19:47;;;;;;;48.60;5.97;;;;;;;4.90;91.07;101769.50;5044761;28;20030;-70
2022/01/23 10:22:14;;;;;;;62.42;5.90;;;;;;;4.88;91.13;101779.72;5062172;28;20029;-71
2022/01/23 10:24:40;;;;;;;88.60;8.57;;;;;;;4.84;90.85;101764.97;5062488;28;20112;-70
2022/01/23 10:27:06;;;;;;;38.28;3.03;;;;;;;4.90;90.97;101785.81;5062477;28;20028;-71
2022/01/23 10:29:36;;;;;;;56.75;7.10;;;;;;;4.87;90.78;101772.84;5062337;28;20060;-71
2022/01/23 10:32:02;;;;;;;51.20;4.85;;;;;;;4.96;91.04;101788.63;5062272;28;20025;-70
2022/01/23 10:34:48;;;;;;;124.72;7.80;;;;;;;5.01;91.14;101775.03;5062722;28;20025;-70
2022/01/23 10:37:34;;;;;;;87.32;8.15;;;;;;;5.07;91.08;101782.97;5061866;28;20055;-71
2022/01/23 10:40:09;;;;;;;82.00;7.28;;;;;;;5.08;91.02;101766.72;5044309;28;20032;-70
2022/01/23 10:48:35;;;;;;;36.30;5.03;;;;;;;5.11;91.17;101768.53;5062096;28;20080;-69
2022/01/23 10:51:30;;;;;;;123.55;12.80;;;;;;;5.06;91.49;101747.78;5061934;28;20115;-70
2022/01/23 10:54:19;;;;;;;84.60;8.23;;;;;;;5.18;91.40;101739.59;5062155;28;20056;-71
2022/01/23 10:57:07;;;;;;;62.35;7.18;;;;;;;5.16;91.05;101739.53;5061824;28;20029;-70
2022/01/23 10:59:43;;;;;;;46.03;5.97;;;;;;;5.17;91.30;101731.03;5043987;28;20493;-68
2022/01/23 11:02:13;;;;;;;47.63;5.85;;;;;;;5.27;91.31;101750.22;5061759;28;20028;-69
2022/01/23 11:04:50;;;;;;;20.02;4.15;;;;;;;5.28;91.35;101746.84;5061977;28;20025;-69
2022/01/23 11:07:16;;;;;;;22.48;4.03;;;;;;;5.31;91.02;101751.22;5061974;28;20036;-69
2022/01/23 11:09:41;;;;;;;24.58;5.25;;;;;;;5.38;91.10;101752.31;5062109;28;20103;-69
2022/01/23 11:12:22;;;;;;;43.53;6.85;;;;;;;5.29;90.87;101745.13;5061941;28;20036;-69
2022/01/23 11:18:00;;;;;;;25.98;4.93;;;;;;;5.38;90.88;101752.31;5046463;28;20041;-69
2022/01/23 11:20:34;;;;;;;23.23;4.93;;;;;;;5.32;90.80;101740.06;5066033;28;20429;-70
2022/01/23 11:23:01;;;;;;;19.33;5.85;;;;;;;5.36;91.05;101747.09;5047582;28;20033;-69
2022/01/23 11:25:27;;;;;;;12.55;3.50;;;;;;;5.39;91.15;101749.78;5065622;28;20021;-69
2022/01/23 11:28:01;;;;;;;16.20;4.68;;;;;;;5.45;90.79;101751.69;5065451;28;20174;-68
2022/01/23 11:30:40;;;;;;;16.65;4.25;;;;;;;5.48;90.95;101753.50;5065747;28;20109;-69
2022/01/23 11:33:09;;;;;;;16.38;3.60;;;;;;;5.49;90.94;101745.84;5065651;28;20069;-68
2022/01/23 11:35:35;;;;;;;24.23;5.15;;;;;;;5.49;90.84;101742.38;5047381;28;20044;-69
2022/01/23 11:38:01;;;;;;;16.60;4.20;;;;;;;5.57;90.66;101738.38;5065454;28;20032;-68
2022/01/23 11:53:45;;;;;;;21.45;4.50;;;;;;;5.69;90.85;101728.47;5065059;28;20051;-68
2022/01/23 11:54:07;;;;;;;13.88;3.30;;;;;;;5.77;90.50;101743.28;5064913;28;20021;-68
2022/01/23 11:56:37;;;;;;;11.93;3.80;;;;;;;5.73;90.96;101734.59;5065191;28;20029;-68
2022/01/23 11:59:19;;;;;;;9.48;3.33;;;;;;;5.81;91.08;101738.28;5065126;28;20024;-67
2022/01/23 12:01:47;;;;;;;13.43;3.28;;;;;;;5.92;91.25;101735.19;5065102;28;20075;-68
2022/01/23 12:04:22;;;;;;;12.55;3.83;;;;;;;5.96;90.93;101747.34;5065369;28;20116;-68
2022/01/23 12:07:14;;;;;;;16.63;4.10;;;;;;;5.97;90.77;101728.50;5064058;28;20446;-69
2022/01/23 12:09:43;;;;;;;12.32;4.30;;;;;;;5.97;91.18;101727.63;5064989;28;20036;-68
2022/01/23 12:12:29;;;;;;;16.48;3.47;;;;;;;6.02;90.93;101734.66;5064586;28;20029;-68
2022/01/23 12:18:18;;;;;;;21.25;3.50;;;;;;;6.12;90.93;101730.72;5031536;28;20060;-68
2022/01/23 12:20:46;;;;;;;13.40;2.95;;;;;;;6.18;90.94;101732.63;5064885;28;20039;-67
2022/01/23 12:23:14;;;;;;;10.48;2.90;;;;;;;6.18;90.71;101728.31;5064714;28;20088;-68
2022/01/23 12:25:42;;;;;;;14.18;3.20;;;;;;;6.18;90.96;101717.16;5064346;28;20028;-68
2022/01/23 12:28:11;;;;;;;15.27;3.08;;;;;;;6.25;91.09;101719.06;5064657;28;20025;-68
2022/01/23 12:30:38;;;;;;;11.13;3.45;;;;;;;6.41;90.73;101729.84;5064243;28;20033;-68
2022/01/23 12:33:11;;;;;;;16.73;3.47;;;;;;;6.41;90.55;101733.31;5064827;28;20021;-67
2022/01/23 12:35:43;;;;;;;14.25;3.28;;;;;;;6.39;90.38;101727.22;5043105;28;20064;-67
2022/01/23 12:38:11;;;;;;;12.93;2.92;;;;;;;6.37;90.27;101713.44;5044572;28;20063;-67
2022/01/23 12:40:43;;;;;;;19.60;3.90;;;;;;;6.37;90.24;101704.81;5042802;28;20097;-67
2022/01/23 12:43:13;;;;;;;8.98;3.08;;;;;;;6.41;90.27;101712.69;5044444;28;20176;-68
2022/01/23 12:46:02;;;;;;;9.43;2.65;;;;;;;6.43;90.50;101712.72;5044267;28;20029;-68
2022/01/23 12:48:28;;;;;;;11.05;2.88;;;;;;;6.47;90.53;101704.22;5044422;28;20048;-69
2022/01/23 12:50:58;;;;;;;19.65;3.30;;;;;;;6.48;90.60;101710.28;5044083;28;20022;-68
2022/01/23 12:53:45;;;;;;;16.77;3.45;;;;;;;6.49;90.45;101712.03;5043016;28;20024;-68
2022/01/23 12:56:19;;;;;;;15.55;3.15;;;;;;;6.49;90.25;101701.69;5042534;28;20032;-68
2022/01/23 12:58:54;;;;;;;9.63;3.30;;;;;;;6.53;90.41;101707.00;5042783;28;20131;-68
2022/01/23 13:01:23;;;;;;;20.83;4.10;;;;;;;6.58;90.07;101717.47;5043915;28;20021;-68
2022/01/23 13:03:57;;;;;;;13.60;3.15;;;;;;;6.52;90.17;101694.03;5044627;28;20051;-68
2022/01/23 13:06:33;;;;;;;16.13;3.35;;;;;;;6.61;90.22;101709.81;5044752;28;20053;-69
2022/01/23 13:09:12;;;;;;;23.85;4.10;;;;;;;6.65;90.25;101714.22;5044402;28;20021;-69
2022/01/23 13:11:55;;;;;;;11.65;3.75;;;;;;;6.66;89.72;101707.38;5044078;28;20318;-69
2022/01/23 13:14:27;;;;;;;17.20;3.90;;;;;;;6.64;89.52;101707.34;5044120;28;20032;-68
2022/01/23 13:30:55;;;;;;;11.18;3.78;;;;;;;6.38;89.28;101717.75;4982843;28;20038;-68
2022/01/23 13:33:22;;;;;;;14.52;5.95;;;;;;;6.34;89.66;101721.06;4983088;28;20034;-68
2022/01/23 13:35:53;;;;;;;10.90;4.70;;;;;;;6.33;89.51;101719.31;4991805;28;20046;-67
2022/01/23 13:38:21;;;;;;;15.75;4.22;;;;;;;6.32;89.52;101713.28;5002145;28;20034;-69
2022/01/23 13:40:57;;;;;;;10.27;3.22;;;;;;;6.25;89.56;101707.88;5001286;28;20030;-68
2022/01/23 13:59:24;;;;;;;28.52;5.57;;;;;;;6.10;89.47;101705.72;5064079;28;20088;-70
2022/01/23 14:01:56;;;;;;;35.00;5.80;;;;;;;5.96;89.51;101690.63;5045971;28;20084;-70
2022/01/23 14:04:28;;;;;;;20.80;4.63;;;;;;;5.97;89.69;101701.84;5064197;28;20029;-70
2022/01/23 14:06:53;;;;;;;20.52;6.18;;;;;;;5.85;89.58;101694.59;5064041;28;20035;-71
2022/01/23 14:09:20;;;;;;;35.15;7.32;;;;;;;5.90;89.58;101698.19;5063842;28;20028;-71
2022/01/23 14:11:47;;;;;;;33.83;7.05;;;;;;;5.86;89.77;101692.06;5063255;28;20097;-70
2022/01/23 14:14:25;;;;;;;54.22;7.53;;;;;;;5.81;90.16;101693.63;5064237;28;20052;-70
2022/01/23 14:16:53;;;;;;;22.25;6.07;;;;;;;5.79;90.18;101692.69;5063674;28;20029;-70
2022/01/23 14:19:18;;;;;;;36.78;6.43;;;;;;;5.77;90.08;101705.53;5062500;28;20025;-71
2022/01/23 14:21:49;;;;;;;27.33;5.47;;;;;;;5.73;89.97;101690.81;5045561;28;20028;-71
2022/01/23 14:24:32;;;;;;;28.80;6.53;;;;;;;5.69;90.49;101694.97;5063910;28;20021;-72
2022/01/23 14:26:59;;;;;;;20.42;5.95;;;;;;;5.66;90.07;101694.88;5063480;28;20473;-71
2022/01/23 14:29:25;;;;;;;25.98;6.95;;;;;;;5.60;90.30;101697.25;5045690;28;20107;-71
2022/01/23 14:32:30;;;;;;;23.08;5.97;;;;;;;5.54;90.61;101702.19;5063489;28;20029;-70
2022/01/23 14:35:06;;;;;;;19.80;5.20;;;;;;;5.52;90.43;101696.09;5045301;28;20192;-70
2022/01/23 14:37:32;;;;;;;21.45;5.30;;;;;;;5.48;90.39;101694.28;5063324;28;20108;-71
2022/01/23 14:40:20;;;;;;;21.60;6.07;;;;;;;5.35;90.50;101678.41;5063294;28;20036;-71
2022/01/23 14:42:57;;;;;;;19.13;5.40;;;;;;;5.41;90.35;101704.38;5063153;28;20330;-72
2022/01/23 14:45:23;;;;;;;20.63;5.85;;;;;;;5.35;90.57;101693.84;5045723;28;20032;-71